createdAt,value
2017-11-30T00:00:27.345Z,100108.86
2017-11-30T00:02:54.956Z,100102.15
2017-11-30T00:05:22.536Z,100100.58
2017-11-30T00:07:50.101Z,100096.95
2017-11-30T00:10:17.675Z,100100.91
2017-11-30T00:12:45.243Z,100101.70
2017-11-30T00:15:12.875Z,100098.68
2017-11-30T00:17:41.455Z,100088.03
2017-11-30T00:20:09.029Z,100084.17
2017-11-30T00:22:36.607Z,100078.95
2017-11-30T00:25:04.175Z,100076.11
2017-11-30T00:27:31.805Z,100077.19
2017-11-30T00:29:59.416Z,100071.66
2017-11-30T00:32:26.990Z,100059.27
2017-11-30T00:34:54.562Z,100060.91
2017-11-30T00:37:22.827Z,100064.25
2017-11-30T00:39:50.424Z,100065.33
2017-11-30T00:42:29.857Z,100060.05
2017-11-30T00:44:57.526Z,100068.94
2017-11-30T00:47:25.101Z,100064.76
2017-11-30T00:49:53.486Z,100063.95
2017-11-30T00:52:21.134Z,100073.09
2017-11-30T00:54:49.652Z,100068.61
2017-11-30T00:57:18.017Z,100067.22
2017-11-30T00:59:46.343Z,100067.33
2017-11-30T01:02:13.917Z,100063.58
2017-11-30T01:04:41.494Z,100059.92
2017-11-30T01:07:09.150Z,100050.17
2017-11-30T01:09:37.615Z,100050.04
2017-11-30T01:12:05.918Z,100043.60
2017-11-30T01:14:34.366Z,100047.89
2017-11-30T01:17:01.930Z,100052.81
2017-11-30T01:19:30.299Z,100057.73
2017-11-30T01:21:58.718Z,100055.38
2017-11-30T01:24:27.082Z,100064.36
2017-11-30T01:26:54.758Z,100065.22
2017-11-30T01:29:23.257Z,100058.69
2017-11-30T01:31:50.905Z,100061.52
2017-11-30T01:34:19.391Z,100060.18
2017-11-30T01:36:46.963Z,100066.39
2017-11-30T01:39:14.577Z,100060.84
2017-11-30T01:41:42.184Z,100055.19
2017-11-30T01:44:10.659Z,100054.33
2017-11-30T01:46:38.319Z,100058.38
2017-11-30T01:49:05.916Z,100054.55
2017-11-30T01:51:34.325Z,100052.53
2017-11-30T01:54:01.890Z,100054.95
2017-11-30T01:56:29.490Z,100048.98
2017-11-30T01:58:57.202Z,100046.84
2017-11-30T02:01:24.827Z,100051.06
2017-11-30T02:03:52.401Z,100051.17
2017-11-30T02:06:20.001Z,100050.38
2017-11-30T02:08:47.590Z,100050.41
2017-11-30T02:11:15.189Z,100047.27
2017-11-30T02:13:42.827Z,100046.71
2017-11-30T02:16:10.432Z,100043.39
2017-11-30T02:18:38.025Z,100042.97
2017-11-30T02:21:05.621Z,100047.27
2017-11-30T02:23:33.258Z,100051.25
2017-11-30T02:26:01.638Z,100043.86
2017-11-30T02:28:29.202Z,100036.67
2017-11-30T02:30:56.796Z,100036.23
2017-11-30T02:33:24.374Z,100031.28
2017-11-30T02:35:51.985Z,100030.34
2017-11-30T02:38:19.616Z,100027.16
2017-11-30T02:40:47.680Z,100026.40
2017-11-30T02:43:16.780Z,100031.36
2017-11-30T02:45:44.346Z,100028.78
2017-11-30T02:48:12.690Z,100030.52
2017-11-30T02:50:40.254Z,100019.27
2017-11-30T02:53:07.823Z,100023.84
2017-11-30T02:55:35.429Z,100024.19
2017-11-30T02:58:03.055Z,100017.20
2017-11-30T03:00:30.628Z,100020.23
2017-11-30T03:02:58.203Z,100015.89
2017-11-30T03:05:25.766Z,100015.63
2017-11-30T03:07:54.126Z,100016.93
2017-11-30T03:10:21.697Z,100018.18
2017-11-30T03:12:49.274Z,100016.47
2017-11-30T03:15:16.872Z,100014.44
2017-11-30T03:17:44.510Z,100016.67
2017-11-30T03:20:12.090Z,100007.47
2017-11-30T03:22:40.717Z,100010.69
2017-11-30T03:25:08.321Z,100010.70
2017-11-30T03:27:35.902Z,100008.87
2017-11-30T03:30:03.484Z,100007.95
2017-11-30T03:32:31.061Z,100008.19
2017-11-30T03:34:58.638Z,100005.81
2017-11-30T03:37:26.202Z,100003.14
2017-11-30T03:39:53.773Z,100008.59
2017-11-30T03:42:21.387Z,100010.55
2017-11-30T03:44:48.950Z,100011.16
2017-11-30T03:47:16.567Z,100007.55
2017-11-30T03:49:44.135Z,100015.80
2017-11-30T03:52:11.701Z,100011.66
2017-11-30T03:54:39.270Z,100013.63
2017-11-30T03:57:06.839Z,100008.75
2017-11-30T03:59:34.463Z,100004.97
2017-11-30T04:02:02.983Z,100003.88
2017-11-30T04:04:31.315Z,99995.81
2017-11-30T04:06:58.913Z,100001.31
2017-11-30T04:09:26.550Z,100001.41
2017-11-30T04:11:54.218Z,100001.20
2017-11-30T04:14:21.879Z,100004.38
2017-11-30T04:16:49.446Z,100006.37
2017-11-30T04:19:17.012Z,99999.44
2017-11-30T04:21:44.583Z,100002.00
2017-11-30T04:24:12.151Z,100005.51
2017-11-30T04:26:40.494Z,100010.73
2017-11-30T04:29:08.981Z,100008.08
2017-11-30T04:31:37.343Z,100013.82
2017-11-30T04:34:04.901Z,100013.45
2017-11-30T04:36:32.463Z,100004.61
2017-11-30T04:39:00.062Z,100006.80
2017-11-30T04:41:27.630Z,100011.30
2017-11-30T04:43:55.199Z,100007.15
2017-11-30T04:46:22.769Z,100010.41
2017-11-30T04:48:50.348Z,100009.77
2017-11-30T04:51:17.921Z,100002.76
2017-11-30T04:53:45.494Z,100004.05
2017-11-30T04:56:13.165Z,100004.61
2017-11-30T04:58:40.734Z,100008.16
2017-11-30T05:01:08.297Z,99998.41
2017-11-30T05:03:35.865Z,100003.30
2017-11-30T05:06:03.437Z,99996.00
2017-11-30T05:08:30.994Z,99990.66
2017-11-30T05:10:58.554Z,99991.86
2017-11-30T05:13:26.125Z,99989.98
2017-11-30T05:15:53.686Z,99978.71
2017-11-30T05:18:21.253Z,99983.53
2017-11-30T05:20:48.885Z,99985.80
2017-11-30T05:23:16.448Z,99981.17
2017-11-30T05:25:44.009Z,99984.33
2017-11-30T05:28:11.570Z,99975.73
2017-11-30T05:30:39.221Z,99984.83
2017-11-30T05:33:06.819Z,99990.82
2017-11-30T05:35:35.366Z,99989.89
2017-11-30T05:38:02.925Z,99992.63
2017-11-30T05:40:30.489Z,99983.44
2017-11-30T05:42:58.049Z,99982.91
2017-11-30T05:45:25.608Z,99979.19
2017-11-30T05:47:53.172Z,99976.03
2017-11-30T05:50:21.637Z,99990.45
2017-11-30T05:52:50.137Z,99983.69
2017-11-30T05:55:17.702Z,99973.83
2017-11-30T05:57:45.266Z,99978.03
2017-11-30T06:00:12.917Z,99979.52
2017-11-30T06:02:41.379Z,99981.34
2017-11-30T06:05:08.963Z,99977.75
2017-11-30T06:07:36.626Z,99991.42
2017-11-30T06:10:04.194Z,99988.31
2017-11-30T06:12:31.850Z,99988.55
2017-11-30T06:14:59.405Z,99981.25
2017-11-30T06:17:26.966Z,99984.05
2017-11-30T06:19:54.795Z,99982.55
2017-11-30T06:22:23.261Z,99980.77
2017-11-30T06:24:50.827Z,99978.48
2017-11-30T06:27:18.389Z,99981.07
2017-11-30T06:29:45.956Z,99975.78
2017-11-30T06:32:13.572Z,99984.06
2017-11-30T06:34:41.224Z,99975.70
2017-11-30T06:37:08.785Z,99974.39
2017-11-30T06:39:36.346Z,99978.14
2017-11-30T06:42:03.906Z,99972.78
2017-11-30T06:44:31.469Z,99977.89
2017-11-30T06:46:59.125Z,99977.22
2017-11-30T06:49:26.718Z,99979.70
2017-11-30T06:51:54.287Z,99986.67
2017-11-30T06:54:22.933Z,99985.60
2017-11-30T06:56:50.490Z,99984.42
2017-11-30T06:59:18.050Z,99989.23
2017-11-30T07:01:45.610Z,99987.78
2017-11-30T07:04:13.174Z,99991.40
2017-11-30T07:06:40.838Z,99994.92
2017-11-30T07:09:08.396Z,99985.98
2017-11-30T07:11:37.029Z,99995.98
2017-11-30T07:14:05.311Z,99995.09
2017-11-30T07:16:33.779Z,99991.33
2017-11-30T07:19:02.375Z,99987.19
2017-11-30T07:21:29.994Z,99995.67
2017-11-30T07:23:58.277Z,99991.70
2017-11-30T07:26:25.844Z,99993.42
2017-11-30T07:28:53.469Z,99996.36
2017-11-30T07:31:21.026Z,99990.42
2017-11-30T07:33:48.593Z,99992.19
2017-11-30T07:36:16.158Z,99996.53
2017-11-30T07:38:43.845Z,99994.06
2017-11-30T07:41:12.330Z,99991.34
2017-11-30T07:43:39.903Z,100000.95
2017-11-30T07:46:08.360Z,99991.98
2017-11-30T07:48:36.808Z,99995.19
2017-11-30T07:51:04.409Z,100003.94
2017-11-30T07:53:31.984Z,100001.06
2017-11-30T07:55:59.541Z,99998.09
2017-11-30T07:58:27.199Z,99995.45
2017-11-30T08:00:55.662Z,99990.17
2017-11-30T08:03:24.242Z,99983.48
2017-11-30T08:05:51.800Z,99980.66
2017-11-30T08:08:19.355Z,99979.79
2017-11-30T08:10:47.606Z,99983.09
2017-11-30T08:13:15.171Z,99976.48
2017-11-30T08:15:43.700Z,99982.40
2017-11-30T08:18:11.262Z,99987.11
2017-11-30T08:20:39.704Z,99978.25
2017-11-30T08:23:07.266Z,99979.72
2017-11-30T08:25:34.821Z,99979.53
2017-11-30T08:28:03.283Z,99980.94
2017-11-30T08:30:30.846Z,99982.16
2017-11-30T08:32:58.565Z,99980.56
2017-11-30T08:35:26.124Z,99975.64
2017-11-30T08:37:53.682Z,99980.02
2017-11-30T08:40:22.062Z,99974.05
2017-11-30T08:42:49.622Z,99975.63
2017-11-30T08:45:17.189Z,99977.87
2017-11-30T08:47:44.754Z,99980.45
2017-11-30T08:50:12.317Z,99975.59
2017-11-30T08:52:39.932Z,99970.47
2017-11-30T08:55:07.497Z,99978.43
2017-11-30T08:57:35.095Z,99971.95
2017-11-30T09:00:02.754Z,99971.95
2017-11-30T09:02:30.315Z,99975.33
2017-11-30T09:04:57.883Z,99975.01
2017-11-30T09:07:25.475Z,99977.29
2017-11-30T09:09:53.037Z,99979.31
2017-11-30T09:12:20.649Z,99984.95
2017-11-30T09:14:49.107Z,99986.00
2017-11-30T09:17:16.672Z,99981.98
2017-11-30T09:19:45.144Z,99983.41
2017-11-30T09:22:12.708Z,99987.58
2017-11-30T09:24:40.267Z,99982.00
2017-11-30T09:27:08.519Z,99981.22
2017-11-30T09:29:36.114Z,99980.52
2017-11-30T09:32:03.678Z,99978.92
2017-11-30T09:34:32.107Z,99979.16
2017-11-30T09:36:59.750Z,99979.73
2017-11-30T09:39:27.353Z,99974.55
2017-11-30T09:41:54.907Z,99976.57
2017-11-30T09:44:23.358Z,99975.89
2017-11-30T09:46:50.918Z,99976.21
2017-11-30T09:49:18.483Z,99969.93
2017-11-30T09:51:46.051Z,99967.77
2017-11-30T09:54:14.565Z,99972.07
2017-11-30T09:56:42.134Z,99967.67
2017-11-30T09:59:09.707Z,99969.30
2017-11-30T10:01:37.270Z,99973.41
2017-11-30T10:04:04.869Z,99970.72
2017-11-30T10:06:32.431Z,99974.69
2017-11-30T10:09:00.892Z,99974.82
2017-11-30T10:11:29.012Z,99977.38
2017-11-30T10:13:56.602Z,99972.59
2017-11-30T10:16:24.197Z,99972.31
2017-11-30T10:18:51.762Z,99971.18
2017-11-30T10:21:19.417Z,99975.05
2017-11-30T10:23:47.080Z,99970.89
2017-11-30T10:26:14.639Z,99973.85
2017-11-30T10:28:42.244Z,99970.86
2017-11-30T10:31:09.802Z,99974.84
2017-11-30T10:33:37.406Z,99965.63
2017-11-30T10:36:04.975Z,99958.41
2017-11-30T10:38:32.554Z,99963.20
2017-11-30T10:41:00.172Z,99961.48
2017-11-30T10:43:27.743Z,99969.67
2017-11-30T10:45:55.333Z,99962.95
2017-11-30T10:48:22.899Z,99966.66
2017-11-30T10:50:50.461Z,99967.73
2017-11-30T10:53:18.030Z,99971.91
2017-11-30T10:55:45.584Z,99968.48
2017-11-30T10:58:13.182Z,99973.86
2017-11-30T11:00:40.799Z,99969.05
2017-11-30T11:03:08.397Z,99972.33
2017-11-30T11:05:35.966Z,99970.25
2017-11-30T11:08:03.577Z,99979.31
2017-11-30T11:10:31.243Z,99971.54
2017-11-30T11:12:58.805Z,99976.87
2017-11-30T11:15:26.358Z,99982.16
2017-11-30T11:17:54.030Z,99981.34
2017-11-30T11:20:22.416Z,99978.25
2017-11-30T11:22:49.975Z,99983.45
2017-11-30T11:25:18.513Z,99983.59
2017-11-30T11:27:46.079Z,99984.54
2017-11-30T11:30:13.637Z,99979.97
2017-11-30T11:32:42.218Z,99990.11
2017-11-30T11:35:09.782Z,99976.19
2017-11-30T11:37:37.341Z,99978.11
2017-11-30T11:40:04.911Z,99979.89
2017-11-30T11:42:32.474Z,99972.76
2017-11-30T11:45:00.946Z,99970.11
2017-11-30T11:47:29.421Z,99968.16
2017-11-30T11:49:56.981Z,99961.83
2017-11-30T11:52:25.399Z,99963.88
2017-11-30T11:54:52.966Z,99957.31
2017-11-30T11:57:20.525Z,99954.11
2017-11-30T11:59:48.988Z,99950.99
2017-11-30T12:02:16.573Z,99943.23
2017-11-30T12:04:45.028Z,99938.33
2017-11-30T12:07:13.526Z,99931.55
2017-11-30T12:09:41.095Z,99930.63
2017-11-30T12:12:09.553Z,99932.78
2017-11-30T12:14:37.110Z,99931.42
2017-11-30T12:17:05.562Z,99925.39
2017-11-30T12:19:33.114Z,99928.80
2017-11-30T12:22:01.593Z,99926.72
2017-11-30T12:24:30.046Z,99930.59
2017-11-30T12:26:57.616Z,99933.64
2017-11-30T12:29:25.174Z,99932.02
2017-11-30T12:31:53.537Z,99927.88
2017-11-30T12:34:22.095Z,99924.91
2017-11-30T12:36:49.693Z,99927.34
2017-11-30T12:39:17.252Z,99926.14
2017-11-30T12:41:45.586Z,99927.74
2017-11-30T12:44:13.186Z,99924.32
2017-11-30T12:46:41.084Z,99913.91
2017-11-30T12:49:09.560Z,99924.69
2017-11-30T12:51:37.123Z,99915.66
2017-11-30T12:54:04.682Z,99915.69
2017-11-30T12:56:32.243Z,99908.26
2017-11-30T12:58:59.844Z,99908.56
2017-11-30T13:01:28.269Z,99908.07
2017-11-30T13:03:56.129Z,99907.23
2017-11-30T13:06:23.792Z,99911.63
2017-11-30T13:08:51.448Z,99906.05
2017-11-30T13:11:19.156Z,99906.66
2017-11-30T13:13:46.749Z,99906.09
2017-11-30T13:16:14.303Z,99912.65
2017-11-30T13:18:41.901Z,99912.19
2017-11-30T13:21:10.365Z,99914.02
2017-11-30T13:23:37.960Z,99916.45
2017-11-30T13:26:05.521Z,99915.41
2017-11-30T13:28:33.443Z,99912.53
2017-11-30T13:31:01.037Z,99909.69
2017-11-30T13:33:28.596Z,99918.09
2017-11-30T13:35:56.153Z,99909.55
2017-11-30T13:38:23.816Z,99917.52
2017-11-30T13:40:51.376Z,99913.31
2017-11-30T13:43:19.997Z,99917.91
2017-11-30T13:45:47.553Z,99908.85
2017-11-30T13:48:15.103Z,99913.33
2017-11-30T13:50:43.669Z,99915.44
2017-11-30T13:53:11.332Z,99912.61
2017-11-30T13:55:39.803Z,99910.76
2017-11-30T13:58:19.187Z,99905.34
2017-11-30T14:00:47.599Z,99916.14
2017-11-30T14:03:16.112Z,99918.03
2017-11-30T14:05:44.572Z,99926.25
2017-11-30T14:08:13.016Z,99921.77
2017-11-30T14:10:41.495Z,99920.52
2017-11-30T14:13:09.820Z,99920.13
2017-11-30T14:15:38.137Z,99919.61
2017-11-30T14:18:06.462Z,99920.86
2017-11-30T14:20:34.926Z,99923.25
2017-11-30T14:23:03.239Z,99922.52
2017-11-30T14:25:30.833Z,99930.38
2017-11-30T14:27:59.280Z,99930.88
2017-11-30T14:30:27.616Z,99927.20
2017-11-30T14:32:56.060Z,99921.39
2017-11-30T14:35:23.620Z,99926.73
2017-11-30T14:37:51.964Z,99943.16
2017-11-30T14:40:20.417Z,99950.03
2017-11-30T14:42:48.692Z,99945.80
2017-11-30T14:45:17.029Z,99945.66
2017-11-30T14:47:45.516Z,99948.17
2017-11-30T14:50:13.109Z,99953.66
2017-11-30T14:52:41.460Z,99954.06
2017-11-30T14:55:09.944Z,99957.75
2017-11-30T14:57:38.443Z,99961.17
2017-11-30T15:00:06.001Z,99963.30
2017-11-30T15:02:34.372Z,99964.67
2017-11-30T15:05:01.965Z,99964.52
2017-11-30T15:07:30.307Z,99971.30
2017-11-30T15:09:57.892Z,99969.33
2017-11-30T15:12:26.349Z,99975.91
2017-11-30T15:14:53.948Z,99968.84
2017-11-30T15:17:22.497Z,99973.75
2017-11-30T15:19:50.873Z,99977.19
2017-11-30T15:22:19.296Z,99978.05
2017-11-30T15:24:46.879Z,99992.08
2017-11-30T15:27:15.278Z,99992.13
2017-11-30T15:29:43.683Z,99991.92
2017-11-30T15:32:12.129Z,99998.87
2017-11-30T15:34:40.630Z,99993.14
2017-11-30T15:37:09.021Z,100001.12
2017-11-30T15:39:36.628Z,100005.20
2017-11-30T15:42:05.113Z,100000.73
2017-11-30T15:44:33.453Z,100002.08
2017-11-30T15:47:01.787Z,100007.15
2017-11-30T15:49:30.184Z,100007.11
2017-11-30T15:51:58.525Z,100005.36
2017-11-30T15:54:26.825Z,100010.91
2017-11-30T15:56:55.156Z,100009.09
2017-11-30T15:59:22.755Z,100011.13
2017-11-30T16:01:51.092Z,100013.55
2017-11-30T16:04:18.652Z,100022.89
2017-11-30T16:06:46.208Z,100020.77
2017-11-30T16:09:14.577Z,100026.06
2017-11-30T16:11:42.135Z,100024.44
2017-11-30T16:14:09.691Z,100030.13
2017-11-30T16:16:37.257Z,100040.97
2017-11-30T16:19:04.818Z,100039.08
2017-11-30T16:21:32.428Z,100043.10
2017-11-30T16:23:59.985Z,100046.22
2017-11-30T16:26:27.596Z,100046.69
2017-11-30T16:28:55.159Z,100051.36
2017-11-30T16:31:23.772Z,100056.30
2017-11-30T16:33:51.336Z,100053.96
2017-11-30T16:36:18.896Z,100056.17
2017-11-30T16:38:46.451Z,100057.23
2017-11-30T16:41:14.052Z,100058.78
2017-11-30T16:43:41.623Z,100064.34
2017-11-30T16:46:09.184Z,100065.44
2017-11-30T16:48:36.776Z,100068.56
2017-11-30T16:51:04.335Z,100071.88
2017-11-30T16:53:31.908Z,100070.98
2017-11-30T16:55:59.475Z,100076.34
2017-11-30T16:58:27.037Z,100077.58
2017-11-30T17:00:54.595Z,100080.25
2017-11-30T17:03:22.158Z,100082.78
2017-11-30T17:05:49.732Z,100078.30
2017-11-30T17:08:17.292Z,100088.81
2017-11-30T17:10:44.859Z,100082.38
2017-11-30T17:13:12.419Z,100086.89
2017-11-30T17:15:39.977Z,100086.87
2017-11-30T17:18:08.256Z,100094.80
2017-11-30T17:20:35.880Z,100093.86
2017-11-30T17:23:04.273Z,100095.51
2017-11-30T17:25:31.863Z,100096.02
2017-11-30T17:28:00.126Z,100099.27
2017-11-30T17:30:27.719Z,100097.00
2017-11-30T17:32:56.107Z,100097.53
2017-11-30T17:35:24.555Z,100098.40
2017-11-30T17:37:52.156Z,100098.89
2017-11-30T17:40:19.723Z,100105.14
2017-11-30T17:42:47.281Z,100107.41
2017-11-30T17:45:15.725Z,100116.93
2017-11-30T17:47:43.284Z,100113.09
2017-11-30T17:50:11.839Z,100112.33
2017-11-30T17:52:40.328Z,100117.82
2017-11-30T17:55:07.921Z,100120.06
2017-11-30T17:57:36.186Z,100119.66
2017-11-30T18:00:04.444Z,100116.42
2017-11-30T18:02:32.905Z,100130.36
2017-11-30T18:05:01.332Z,100124.73
2017-11-30T18:07:29.937Z,100122.30
2017-11-30T18:09:57.635Z,100126.26
2017-11-30T18:12:25.261Z,100133.54
2017-11-30T18:14:52.823Z,100128.84
2017-11-30T18:17:20.424Z,100133.46
2017-11-30T18:19:48.028Z,100138.11
2017-11-30T18:22:15.636Z,100147.92
2017-11-30T18:24:43.197Z,100147.00
2017-11-30T18:27:11.682Z,100150.66
2017-11-30T18:29:40.033Z,100150.03
2017-11-30T18:32:07.599Z,100152.71
2017-11-30T18:34:35.172Z,100152.70
2017-11-30T18:37:02.843Z,100156.16
2017-11-30T18:39:30.453Z,100152.51
2017-11-30T18:41:58.035Z,100156.98
2017-11-30T18:44:26.436Z,100160.13
2017-11-30T18:46:54.779Z,100161.55
2017-11-30T18:49:23.148Z,100157.73
2017-11-30T18:51:51.753Z,100157.44
2017-11-30T18:54:19.321Z,100150.67
2017-11-30T18:56:46.884Z,100159.33
2017-11-30T18:59:14.442Z,100155.75
2017-11-30T19:01:42.000Z,100154.23
2017-11-30T19:04:09.611Z,100159.73
2017-11-30T19:06:37.172Z,100163.98
2017-11-30T19:09:04.736Z,100169.91
2017-11-30T19:11:32.296Z,100166.55
2017-11-30T19:13:59.900Z,100165.78
2017-11-30T19:16:27.504Z,100169.70
2017-11-30T19:18:55.064Z,100166.02
2017-11-30T19:21:22.632Z,100160.95
2017-11-30T19:23:50.281Z,100171.19
2017-11-30T19:26:17.849Z,100173.84
2017-11-30T19:28:45.445Z,100171.64
2017-11-30T19:31:13.135Z,100173.41
2017-11-30T19:33:40.736Z,100178.45
2017-11-30T19:36:09.231Z,100179.56
2017-11-30T19:38:36.797Z,100188.98
2017-11-30T19:41:04.438Z,100185.55
2017-11-30T19:43:32.906Z,100192.88
2017-11-30T19:46:00.525Z,100196.09
2017-11-30T19:48:28.081Z,100199.04
2017-11-30T19:50:55.702Z,100204.07
2017-11-30T19:53:23.269Z,100214.55
2017-11-30T19:55:50.924Z,100214.49
2017-11-30T19:58:18.487Z,100219.28
2017-11-30T20:00:46.144Z,100212.65
2017-11-30T20:03:13.708Z,100221.41
2017-11-30T20:05:41.369Z,100216.80
2017-11-30T20:08:08.936Z,100220.17
2017-11-30T20:10:36.495Z,100218.67
2017-11-30T20:13:04.061Z,100221.78
2017-11-30T20:15:31.716Z,100219.81
2017-11-30T20:17:59.345Z,100214.44
2017-11-30T20:20:27.232Z,100218.41
2017-11-30T20:22:54.809Z,100222.02
2017-11-30T20:25:22.378Z,100218.96
2017-11-30T20:27:49.944Z,100218.22
2017-11-30T20:30:17.596Z,100215.34
2017-11-30T20:32:46.104Z,100219.45
2017-11-30T20:35:14.828Z,100221.98
2017-11-30T20:37:42.388Z,100224.27
2017-11-30T20:40:10.721Z,100231.87
2017-11-30T20:42:39.334Z,100227.98
2017-11-30T20:45:06.952Z,100220.77
2017-11-30T20:47:34.524Z,100234.88
2017-11-30T20:50:02.119Z,100230.36
2017-11-30T20:52:29.699Z,100234.74
2017-11-30T20:54:57.400Z,100234.92
2017-11-30T20:57:25.800Z,100234.81
2017-11-30T20:59:53.375Z,100228.97
2017-11-30T21:02:21.001Z,100229.33
2017-11-30T21:04:48.579Z,100225.00
2017-11-30T21:07:16.140Z,100227.06
2017-11-30T21:09:44.481Z,100233.31
2017-11-30T21:12:12.980Z,100228.83
2017-11-30T21:14:41.372Z,100228.41
2017-11-30T21:17:08.988Z,100234.77
2017-11-30T21:19:36.561Z,100228.52
2017-11-30T21:22:04.922Z,100227.45
2017-11-30T21:24:32.533Z,100230.66
2017-11-30T21:27:00.101Z,100235.73
2017-11-30T21:29:28.635Z,100241.78
2017-11-30T21:31:57.057Z,100238.29
2017-11-30T21:34:25.541Z,100246.44
2017-11-30T21:36:53.113Z,100239.20
2017-11-30T21:39:20.755Z,100241.83
2017-11-30T21:41:49.113Z,100244.83
2017-11-30T21:44:16.796Z,100242.17
2017-11-30T21:46:44.364Z,100247.84
2017-11-30T21:49:11.932Z,100255.66
2017-11-30T21:51:39.501Z,100247.23
2017-11-30T21:54:07.151Z,100256.59
2017-11-30T21:56:34.768Z,100257.64
2017-11-30T21:59:02.368Z,100261.34
2017-11-30T22:01:29.939Z,100264.61
2017-11-30T22:03:57.555Z,100273.63
2017-11-30T22:06:25.120Z,100271.95
2017-11-30T22:08:52.688Z,100275.67
2017-11-30T22:11:20.274Z,100271.88
2017-11-30T22:13:47.896Z,100270.86
2017-11-30T22:16:15.504Z,100274.05
2017-11-30T22:18:43.075Z,100275.41
2017-11-30T22:21:10.647Z,100268.63
2017-11-30T22:23:38.276Z,100264.34
2017-11-30T22:26:05.852Z,100272.27
2017-11-30T22:28:33.499Z,100276.06
2017-11-30T22:31:01.168Z,100279.39
2017-11-30T22:33:28.737Z,100279.65
2017-11-30T22:35:56.392Z,100277.19
2017-11-30T22:38:24.018Z,100278.17
2017-11-30T22:40:51.594Z,100281.16
2017-11-30T22:43:19.160Z,100282.50
2017-11-30T22:45:47.651Z,100290.58
2017-11-30T22:48:16.144Z,100290.99
2017-11-30T22:50:43.716Z,100297.17
2017-11-30T22:53:11.322Z,100296.66
2017-11-30T22:55:38.882Z,100284.53
2017-11-30T22:58:07.405Z,100292.98
2017-11-30T23:00:41.770Z,100304.70
2017-11-30T23:03:09.347Z,100309.53
2017-11-30T23:05:36.939Z,100310.23
2017-11-30T23:08:04.503Z,100312.88
2017-11-30T23:10:32.126Z,100310.98
2017-11-30T23:12:59.663Z,100319.07
2017-11-30T23:15:27.291Z,100322.17
2017-11-30T23:17:54.871Z,100326.02
2017-11-30T23:20:22.435Z,100324.71
2017-11-30T23:22:50.694Z,100330.73
2017-11-30T23:25:18.988Z,100327.56
2017-11-30T23:27:46.562Z,100338.16
2017-11-30T23:30:14.128Z,100331.30
2017-11-30T23:32:41.749Z,100332.11
2017-11-30T23:35:09.320Z,100338.78
2017-11-30T23:37:37.793Z,100337.67
2017-11-30T23:40:05.460Z,100338.75
2017-11-30T23:42:33.076Z,100336.75
2017-11-30T23:45:00.676Z,100334.86
2017-11-30T23:47:28.256Z,100340.27
2017-11-30T23:49:56.608Z,100336.42
2017-11-30T23:52:24.283Z,100342.02
2017-11-30T23:54:51.908Z,100342.54
2017-11-30T23:57:19.474Z,100344.84
2017-11-30T23:59:47.069Z,100340.56
